sensor_id;sensor_type;location;lat;lon;timestamp;pressure;altitude;pressure_sealevel;temperature;humidity
63399;BME280;49533;-34.520;150.798;2022-08-14T00:01:19;99750.47;;;13.03;51.73
63399;BME280;49533;-34.520;150.798;2022-08-14T00:03:46;99751.38;;;13.08;51.40
63399;BME280;49533;-34.520;150.798;2022-08-14T00:06:14;99757.75;;;13.12;50.93
63399;BME280;49533;-34.520;150.798;2022-08-14T00:08:41;99759.31;;;13.13;51.00
63399;BME280;49533;-34.520;150.798;2022-08-14T00:11:08;99757.06;;;13.15;51.63
63399;BME280;49533;-34.520;150.798;2022-08-14T00:13:35;99763.53;;;13.22;51.43
63399;BME280;49533;-34.520;150.798;2022-08-14T00:16:02;99758.16;;;13.26;51.04
63399;BME280;49533;-34.520;150.798;2022-08-14T00:18:30;99757.88;;;13.27;50.87
63399;BME280;49533;-34.520;150.798;2022-08-14T00:20:57;99763.78;;;13.30;51.17
63399;BME280;49533;-34.520;150.798;2022-08-14T00:23:26;99760.69;;;13.31;50.72
63399;BME280;49533;-34.520;150.798;2022-08-14T00:25:54;99766.16;;;13.31;50.21
63399;BME280;49533;-34.520;150.798;2022-08-14T00:28:22;99776.16;;;13.27;50.08
63399;BME280;49533;-34.520;150.798;2022-08-14T00:30:55;99764.78;;;13.25;50.11
63399;BME280;49533;-34.520;150.798;2022-08-14T00:33:24;99754.97;;;13.24;50.31
63399;BME280;49533;-34.520;150.798;2022-08-14T00:35:52;99776.00;;;13.23;50.61
63399;BME280;49533;-34.520;150.798;2022-08-14T00:38:19;99756.59;;;13.25;49.91
63399;BME280;49533;-34.520;150.798;2022-08-14T00:40:46;99764.78;;;13.25;49.73
63399;BME280;49533;-34.520;150.798;2022-08-14T00:43:14;99773.66;;;13.22;50.21
63399;BME280;49533;-34.520;150.798;2022-08-14T00:45:41;99761.50;;;13.19;50.32
63399;BME280;49533;-34.520;150.798;2022-08-14T00:48:09;99752.47;;;13.19;50.01
63399;BME280;49533;-34.520;150.798;2022-08-14T00:50:37;99756.81;;;13.20;50.15
63399;BME280;49533;-34.520;150.798;2022-08-14T00:53:05;99757.28;;;13.22;50.12
63399;BME280;49533;-34.520;150.798;2022-08-14T00:55:35;99765.88;;;13.24;50.47
63399;BME280;49533;-34.520;150.798;2022-08-14T00:58:05;99771.50;;;13.27;50.12
63399;BME280;49533;-34.520;150.798;2022-08-14T01:00:50;99756.03;;;13.32;49.94
63399;BME280;49533;-34.520;150.798;2022-08-14T01:03:19;99769.22;;;13.30;49.69
63399;BME280;49533;-34.520;150.798;2022-08-14T01:05:49;99751.72;;;13.31;48.83
63399;BME280;49533;-34.520;150.798;2022-08-14T01:08:30;99749.78;;;13.31;49.21
63399;BME280;49533;-34.520;150.798;2022-08-14T01:10:58;99752.97;;;13.33;49.01
63399;BME280;49533;-34.520;150.798;2022-08-14T01:13:37;99752.63;;;13.35;48.94
63399;BME280;49533;-34.520;150.798;2022-08-14T01:16:08;99748.75;;;13.36;49.06
63399;BME280;49533;-34.520;150.798;2022-08-14T01:18:36;99738.28;;;13.38;49.07
63399;BME280;49533;-34.520;150.798;2022-08-14T01:21:38;99734.88;;;13.41;49.31
63399;BME280;49533;-34.520;150.798;2022-08-14T01:24:07;99739.28;;;13.45;49.20
63399;BME280;49533;-34.520;150.798;2022-08-14T01:26:36;99737.81;;;13.48;48.92
63399;BME280;49533;-34.520;150.798;2022-08-14T01:29:04;99734.06;;;13.53;48.96
63399;BME280;49533;-34.520;150.798;2022-08-14T01:31:34;99728.59;;;13.53;49.07
63399;BME280;49533;-34.520;150.798;2022-08-14T01:34:21;99733.69;;;13.54;48.96
63399;BME280;49533;-34.520;150.798;2022-08-14T01:36:51;99723.56;;;13.55;49.11
63399;BME280;49533;-34.520;150.798;2022-08-14T01:39:19;99720.84;;;13.55;49.21
63399;BME280;49533;-34.520;150.798;2022-08-14T01:41:48;99722.44;;;13.56;49.03
63399;BME280;49533;-34.520;150.798;2022-08-14T01:44:23;99719.72;;;13.56;49.01
63399;BME280;49533;-34.520;150.798;2022-08-14T01:46:57;99715.38;;;13.55;48.97
63399;BME280;49533;-34.520;150.798;2022-08-14T01:49:25;99709.13;;;13.54;48.85
63399;BME280;49533;-34.520;150.798;2022-08-14T01:51:52;99701.31;;;13.53;48.39
63399;BME280;49533;-34.520;150.798;2022-08-14T01:54:23;99718.47;;;13.53;48.41
63399;BME280;49533;-34.520;150.798;2022-08-14T01:56:52;99712.63;;;13.55;48.85
63399;BME280;49533;-34.520;150.798;2022-08-14T01:59:25;99707.31;;;13.58;48.69
63399;BME280;49533;-34.520;150.798;2022-08-14T02:01:58;99705.69;;;13.57;48.36
63399;BME280;49533;-34.520;150.798;2022-08-14T02:04:34;99702.19;;;13.57;48.72
63399;BME280;49533;-34.520;150.798;2022-08-14T02:07:03;99696.72;;;13.57;48.78
63399;BME280;49533;-34.520;150.798;2022-08-14T02:09:30;99694.00;;;13.57;48.98
63399;BME280;49533;-34.520;150.798;2022-08-14T02:12:05;99686.25;;;13.59;48.83
63399;BME280;49533;-34.520;150.798;2022-08-14T02:14:33;99697.50;;;13.57;48.92
63399;BME280;49533;-34.520;150.798;2022-08-14T02:17:00;99692.50;;;13.59;48.75
63399;BME280;49533;-34.520;150.798;2022-08-14T02:19:29;99687.41;;;13.58;48.77
63399;BME280;49533;-34.520;150.798;2022-08-14T02:21:58;99668.56;;;13.53;49.02
63399;BME280;49533;-34.520;150.798;2022-08-14T02:24:28;99684.69;;;13.58;49.08
63399;BME280;49533;-34.520;150.798;2022-08-14T02:26:57;99676.50;;;13.58;49.07
63399;BME280;49533;-34.520;150.798;2022-08-14T02:29:27;99672.16;;;13.57;49.01
63399;BME280;49533;-34.520;150.798;2022-08-14T02:31:57;99683.06;;;13.57;49.41
63399;BME280;49533;-34.520;150.798;2022-08-14T02:34:34;99691.38;;;13.60;49.42
63399;BME280;49533;-34.520;150.798;2022-08-14T02:37:08;99662.69;;;13.66;49.42
63399;BME280;49533;-34.520;150.798;2022-08-14T02:39:39;99676.16;;;13.75;49.84
63399;BME280;49533;-34.520;150.798;2022-08-14T02:42:19;99663.88;;;13.81;49.86
63399;BME280;49533;-34.520;150.798;2022-08-14T02:44:47;99666.34;;;13.86;49.90
63399;BME280;49533;-34.520;150.798;2022-08-14T02:47:15;99680.06;;;13.90;49.88
63399;BME280;49533;-34.520;150.798;2022-08-14T02:49:43;99661.50;;;13.96;49.90
63399;BME280;49533;-34.520;150.798;2022-08-14T02:52:10;99663.53;;;13.99;49.89
63399;BME280;49533;-34.520;150.798;2022-08-14T02:54:38;99656.66;;;14.05;49.90
63399;BME280;49533;-34.520;150.798;2022-08-14T02:57:05;99647.31;;;14.06;49.83
63399;BME280;49533;-34.520;150.798;2022-08-14T02:59:34;99633.31;;;14.07;50.10
63399;BME280;49533;-34.520;150.798;2022-08-14T03:02:02;99640.72;;;14.07;50.11
63399;BME280;49533;-34.520;150.798;2022-08-14T03:04:30;99621.59;;;14.07;49.96
63399;BME280;49533;-34.520;150.798;2022-08-14T03:06:58;99610.75;;;14.10;49.64
63399;BME280;49533;-34.520;150.798;2022-08-14T03:09:25;99610.03;;;14.13;49.43
63399;BME280;49533;-34.520;150.798;2022-08-14T03:11:52;99604.69;;;14.17;49.46
63399;BME280;49533;-34.520;150.798;2022-08-14T03:14:20;99602.75;;;14.18;49.22
63399;BME280;49533;-34.520;150.798;2022-08-14T03:16:50;99588.81;;;14.23;48.74
63399;BME280;49533;-34.520;150.798;2022-08-14T03:19:17;99584.31;;;14.30;48.70
63399;BME280;49533;-34.520;150.798;2022-08-14T03:21:44;99575.84;;;14.35;48.50
63399;BME280;49533;-34.520;150.798;2022-08-14T03:24:11;99574.84;;;14.44;48.35
63399;BME280;49533;-34.520;150.798;2022-08-14T03:26:45;99565.25;;;14.50;47.83
63399;BME280;49533;-34.520;150.798;2022-08-14T03:29:14;99540.56;;;14.46;47.79
63399;BME280;49533;-34.520;150.798;2022-08-14T03:31:46;99566.66;;;14.44;47.89
63399;BME280;49533;-34.520;150.798;2022-08-14T03:34:17;99556.09;;;14.42;47.92
63399;BME280;49533;-34.520;150.798;2022-08-14T03:36:47;99553.63;;;14.37;47.87
63399;BME280;49533;-34.520;150.798;2022-08-14T03:39:19;99573.91;;;14.36;48.02
63399;BME280;49533;-34.520;150.798;2022-08-14T03:41:53;99553.97;;;14.35;48.19
63399;BME280;49533;-34.520;150.798;2022-08-14T03:44:20;99556.38;;;14.37;48.15
63399;BME280;49533;-34.520;150.798;2022-08-14T03:46:48;99556.00;;;14.39;48.32
63399;BME280;49533;-34.520;150.798;2022-08-14T03:49:19;99549.81;;;14.42;48.00
63399;BME280;49533;-34.520;150.798;2022-08-14T03:51:47;99555.00;;;14.47;47.71
63399;BME280;49533;-34.520;150.798;2022-08-14T03:54:14;99552.00;;;14.52;47.61
63399;BME280;49533;-34.520;150.798;2022-08-14T03:56:42;99564.19;;;14.54;47.75
63399;BME280;49533;-34.520;150.798;2022-08-14T03:59:10;99556.06;;;14.58;47.65
63399;BME280;49533;-34.520;150.798;2022-08-14T04:01:39;99548.72;;;14.62;47.90
63399;BME280;49533;-34.520;150.798;2022-08-14T04:04:07;99549.88;;;14.61;47.83
63399;BME280;49533;-34.520;150.798;2022-08-14T04:06:36;99549.00;;;14.57;47.80
63399;BME280;49533;-34.520;150.798;2022-08-14T04:09:07;99544.34;;;14.57;47.94
63399;BME280;49533;-34.520;150.798;2022-08-14T04:11:35;99544.69;;;14.56;47.86
63399;BME280;49533;-34.520;150.798;2022-08-14T04:14:04;99555.00;;;14.63;47.36
63399;BME280;49533;-34.520;150.798;2022-08-14T04:16:31;99556.59;;;14.64;47.50
63399;BME280;49533;-34.520;150.798;2022-08-14T04:18:59;99558.53;;;14.63;47.30
63399;BME280;49533;-34.520;150.798;2022-08-14T04:21:29;99546.00;;;14.62;47.60
63399;BME280;49533;-34.520;150.798;2022-08-14T04:23:59;99537.66;;;14.74;47.60
63399;BME280;49533;-34.520;150.798;2022-08-14T04:26:29;99548.53;;;14.71;47.84
63399;BME280;49533;-34.520;150.798;2022-08-14T04:28:56;99544.34;;;14.77;47.29
63399;BME280;49533;-34.520;150.798;2022-08-14T04:31:24;99546.75;;;14.78;47.27
63399;BME280;49533;-34.520;150.798;2022-08-14T04:33:51;99553.34;;;14.77;47.56
63399;BME280;49533;-34.520;150.798;2022-08-14T04:36:19;99538.09;;;14.76;47.19
63399;BME280;49533;-34.520;150.798;2022-08-14T04:38:46;99557.59;;;14.75;47.27
63399;BME280;49533;-34.520;150.798;2022-08-14T04:41:31;99548.97;;;14.73;47.35
63399;BME280;49533;-34.520;150.798;2022-08-14T04:44:18;99549.03;;;14.76;47.20
63399;BME280;49533;-34.520;150.798;2022-08-14T04:46:45;99559.25;;;14.79;47.38
63399;BME280;49533;-34.520;150.798;2022-08-14T04:49:31;99565.50;;;14.80;47.10
63399;BME280;49533;-34.520;150.798;2022-08-14T04:51:59;99552.38;;;14.86;46.14
63399;BME280;49533;-34.520;150.798;2022-08-14T04:54:26;99548.03;;;14.85;46.49
63399;BME280;49533;-34.520;150.798;2022-08-14T04:56:54;99552.22;;;14.78;46.61
63399;BME280;49533;-34.520;150.798;2022-08-14T04:59:22;99546.75;;;14.78;46.92
63399;BME280;49533;-34.520;150.798;2022-08-14T05:01:50;99545.22;;;14.81;46.83
63399;BME280;49533;-34.520;150.798;2022-08-14T05:04:19;99547.59;;;14.83;47.09
63399;BME280;49533;-34.520;150.798;2022-08-14T05:06:49;99538.97;;;14.81;47.17
63399;BME280;49533;-34.520;150.798;2022-08-14T05:09:16;99546.47;;;14.84;46.47
63399;BME280;49533;-34.520;150.798;2022-08-14T05:11:43;99542.13;;;14.83;47.11
63399;BME280;49533;-34.520;150.798;2022-08-14T05:14:11;99547.59;;;14.83;46.79
63399;BME280;49533;-34.520;150.798;2022-08-14T05:16:38;99540.19;;;14.83;46.95
63399;BME280;49533;-34.520;150.798;2022-08-14T05:19:05;99532.34;;;14.82;46.76
63399;BME280;49533;-34.520;150.798;2022-08-14T05:21:35;99541.44;;;14.86;46.44
63399;BME280;49533;-34.520;150.798;2022-08-14T05:24:03;99532.34;;;14.82;46.74
63399;BME280;49533;-34.520;150.798;2022-08-14T05:26:30;99533.91;;;14.83;46.57
63399;BME280;49533;-34.520;150.798;2022-08-14T05:28:57;99531.63;;;14.85;45.76
63399;BME280;49533;-34.520;150.798;2022-08-14T05:31:24;99537.09;;;14.85;46.18
63399;BME280;49533;-34.520;150.798;2022-08-14T05:33:51;99537.81;;;14.82;46.61
63399;BME280;49533;-34.520;150.798;2022-08-14T05:36:18;99540.19;;;14.83;46.51
63399;BME280;49533;-34.520;150.798;2022-08-14T05:38:46;99548.81;;;14.85;46.56
63399;BME280;49533;-34.520;150.798;2022-08-14T05:41:17;99539.09;;;14.88;46.85
63399;BME280;49533;-34.520;150.798;2022-08-14T05:43:46;99554.72;;;14.87;46.82
63399;BME280;49533;-34.520;150.798;2022-08-14T05:46:17;99541.06;;;14.87;46.50
63399;BME280;49533;-34.520;150.798;2022-08-14T05:48:51;99545.72;;;14.87;46.30
63399;BME280;49533;-34.520;150.798;2022-08-14T05:51:20;99547.69;;;14.86;46.30
63399;BME280;49533;-34.520;150.798;2022-08-14T05:53:48;99547.69;;;14.86;46.42
63399;BME280;49533;-34.520;150.798;2022-08-14T05:56:15;99542.13;;;14.83;46.31
63399;BME280;49533;-34.520;150.798;2022-08-14T05:58:44;99553.06;;;14.83;45.66
63399;BME280;49533;-34.520;150.798;2022-08-14T06:01:11;99546.81;;;14.82;44.72
63399;BME280;49533;-34.520;150.798;2022-08-14T06:03:38;99553.88;;;14.83;44.88
63399;BME280;49533;-34.520;150.798;2022-08-14T06:06:05;99571.78;;;14.81;44.18
63399;BME280;49533;-34.520;150.798;2022-08-14T06:08:33;99558.13;;;14.81;44.10
63399;BME280;49533;-34.520;150.798;2022-08-14T06:11:02;99562.44;;;14.82;43.88
63399;BME280;49533;-34.520;150.798;2022-08-14T06:13:32;99550.63;;;14.77;44.66
63399;BME280;49533;-34.520;150.798;2022-08-14T06:16:00;99550.56;;;14.74;44.76
63399;BME280;49533;-34.520;150.798;2022-08-14T06:18:27;99548.97;;;14.73;44.40
63399;BME280;49533;-34.520;150.798;2022-08-14T06:20:55;99545.88;;;14.74;44.33
63399;BME280;49533;-34.520;150.798;2022-08-14T06:23:22;99553.72;;;14.76;43.59
63399;BME280;49533;-34.520;150.798;2022-08-14T06:25:49;99543.91;;;14.75;44.27
63399;BME280;49533;-34.520;150.798;2022-08-14T06:28:21;99557.53;;;14.71;44.23
63399;BME280;49533;-34.520;150.798;2022-08-14T06:30:50;99549.25;;;14.68;44.87
63399;BME280;49533;-34.520;150.798;2022-08-14T06:33:18;99548.44;;;14.67;44.85
63399;BME280;49533;-34.520;150.798;2022-08-14T06:35:47;99555.97;;;14.70;44.42
63399;BME280;49533;-34.520;150.798;2022-08-14T06:38:19;99553.91;;;14.67;44.84
63399;BME280;49533;-34.520;150.798;2022-08-14T06:40:46;99562.13;;;14.67;45.23
63399;BME280;49533;-34.520;150.798;2022-08-14T06:43:15;99561.25;;;14.63;45.29
63399;BME280;49533;-34.520;150.798;2022-08-14T06:45:44;99562.41;;;14.62;45.88
63399;BME280;49533;-34.520;150.798;2022-08-14T06:48:22;99547.50;;;14.60;45.75
63399;BME280;49533;-34.520;150.798;2022-08-14T06:50:52;99575.66;;;14.60;46.08
63399;BME280;49533;-34.520;150.798;2022-08-14T06:53:20;99572.09;;;14.60;45.95
63399;BME280;49533;-34.520;150.798;2022-08-14T06:55:48;99577.94;;;14.58;46.30
63399;BME280;49533;-34.520;150.798;2022-08-14T06:58:17;99566.56;;;14.56;45.59
63399;BME280;49533;-34.520;150.798;2022-08-14T07:00:45;99575.50;;;14.53;45.28
63399;BME280;49533;-34.520;150.798;2022-08-14T07:03:31;99561.00;;;14.52;45.28
63399;BME280;49533;-34.520;150.798;2022-08-14T07:06:17;99564.09;;;14.51;45.38
63399;BME280;49533;-34.520;150.798;2022-08-14T07:08:44;99575.00;;;14.51;45.25
63399;BME280;49533;-34.520;150.798;2022-08-14T07:11:12;99565.94;;;14.47;44.88
63399;BME280;49533;-34.520;150.798;2022-08-14T07:13:39;99569.47;;;14.47;45.76
63399;BME280;49533;-34.520;150.798;2022-08-14T07:16:06;99576.44;;;14.45;45.12
63399;BME280;49533;-34.520;150.798;2022-08-14T07:18:35;99577.25;;;14.45;45.18
63399;BME280;49533;-34.520;150.798;2022-08-14T07:21:04;99581.09;;;14.44;45.07
63399;BME280;49533;-34.520;150.798;2022-08-14T07:23:31;99573.28;;;14.43;45.42
63399;BME280;49533;-34.520;150.798;2022-08-14T07:26:00;99582.59;;;14.42;45.42
63399;BME280;49533;-34.520;150.798;2022-08-14T07:28:38;99588.78;;;14.39;45.40
63399;BME280;49533;-34.520;150.798;2022-08-14T07:31:08;99577.41;;;14.36;45.62
63399;BME280;49533;-34.520;150.798;2022-08-14T07:33:41;99577.00;;;14.34;45.37
63399;BME280;49533;-34.520;150.798;2022-08-14T07:36:10;99589.06;;;14.33;45.67
63399;BME280;49533;-34.520;150.798;2022-08-14T07:38:38;99573.81;;;14.32;45.69
63399;BME280;49533;-34.520;150.798;2022-08-14T07:41:10;99601.94;;;14.33;45.85
63399;BME280;49533;-34.520;150.798;2022-08-14T07:43:39;99594.91;;;14.32;45.90
63399;BME280;49533;-34.520;150.798;2022-08-14T07:46:06;99604.22;;;14.31;45.86
63399;BME280;49533;-34.520;150.798;2022-08-14T07:48:40;99611.63;;;14.30;45.91
63399;BME280;49533;-34.520;150.798;2022-08-14T07:51:09;99607.31;;;14.29;46.17
63399;BME280;49533;-34.520;150.798;2022-08-14T07:53:36;99618.25;;;14.29;46.11
63399;BME280;49533;-34.520;150.798;2022-08-14T07:56:03;99618.94;;;14.26;46.28
63399;BME280;49533;-34.520;150.798;2022-08-14T07:58:30;99634.22;;;14.27;46.29
63399;BME280;49533;-34.520;150.798;2022-08-14T08:00:58;99620.88;;;14.26;46.37
63399;BME280;49533;-34.520;150.798;2022-08-14T08:03:28;99624.41;;;14.26;46.48
63399;BME280;49533;-34.520;150.798;2022-08-14T08:05:58;99642.41;;;14.27;46.79
63399;BME280;49533;-34.520;150.798;2022-08-14T08:08:26;99639.66;;;14.27;47.20
63399;BME280;49533;-34.520;150.798;2022-08-14T08:10:58;99638.44;;;14.25;46.76
63399;BME280;49533;-34.520;150.798;2022-08-14T08:13:27;99653.22;;;14.24;47.03
63399;BME280;49533;-34.520;150.798;2022-08-14T08:15:56;99650.06;;;14.22;47.12
63399;BME280;49533;-34.520;150.798;2022-08-14T08:18:24;99650.06;;;14.22;47.19
63399;BME280;49533;-34.520;150.798;2022-08-14T08:20:53;99652.38;;;14.20;47.03
63399;BME280;49533;-34.520;150.798;2022-08-14T08:23:22;99657.38;;;14.18;47.33
63399;BME280;49533;-34.520;150.798;2022-08-14T08:25:52;99676.50;;;14.18;47.55
63399;BME280;49533;-34.520;150.798;2022-08-14T08:28:23;99667.06;;;14.15;47.58
63399;BME280;49533;-34.520;150.798;2022-08-14T08:31:04;99663.88;;;14.13;47.70
63399;BME280;49533;-34.520;150.798;2022-08-14T08:33:33;99662.31;;;14.12;47.68
63399;BME280;49533;-34.520;150.798;2022-08-14T08:36:06;99667.34;;;14.10;47.58
63399;BME280;49533;-34.520;150.798;2022-08-14T08:38:36;99660.28;;;14.09;47.67
63399;BME280;49533;-34.520;150.798;2022-08-14T08:41:03;99661.41;;;14.08;47.75
63399;BME280;49533;-34.520;150.798;2022-08-14T08:43:33;99673.50;;;14.07;47.69
63399;BME280;49533;-34.520;150.798;2022-08-14T08:46:06;99656.22;;;14.03;47.74
63399;BME280;49533;-34.520;150.798;2022-08-14T08:48:53;99680.81;;;14.03;47.97
63399;BME280;49533;-34.520;150.798;2022-08-14T08:51:25;99676.03;;;14.00;47.89
63399;BME280;49533;-34.520;150.798;2022-08-14T08:56:42;99677.53;;;13.97;48.02
63399;BME280;49533;-34.520;150.798;2022-08-14T08:59:35;99664.22;;;13.96;48.25
63399;BME280;49533;-34.520;150.798;2022-08-14T09:02:05;99670.06;;;13.94;48.28
63399;BME280;49533;-34.520;150.798;2022-08-14T09:04:40;99679.03;;;13.95;48.13
63399;BME280;49533;-34.520;150.798;2022-08-14T09:07:10;99671.09;;;13.89;48.21
63399;BME280;49533;-34.520;150.798;2022-08-14T09:09:39;99673.38;;;13.87;48.28
63399;BME280;49533;-34.520;150.798;2022-08-14T09:12:19;99680.44;;;13.88;48.64
63399;BME280;49533;-34.520;150.798;2022-08-14T09:14:47;99712.38;;;13.88;48.59
63399;BME280;49533;-34.520;150.798;2022-08-14T09:17:18;99690.53;;;13.88;48.54
63399;BME280;49533;-34.520;150.798;2022-08-14T09:19:46;99687.72;;;13.84;48.63
63399;BME280;49533;-34.520;150.798;2022-08-14T09:22:14;99691.16;;;13.81;48.66
63399;BME280;49533;-34.520;150.798;2022-08-14T09:24:43;99693.91;;;13.81;48.70
63399;BME280;49533;-34.520;150.798;2022-08-14T09:27:12;99696.63;;;13.81;48.81
63399;BME280;49533;-34.520;150.798;2022-08-14T09:29:39;99694.59;;;13.78;48.87
63399;BME280;49533;-34.520;150.798;2022-08-14T09:32:08;99704.03;;;13.81;49.21
63399;BME280;49533;-34.520;150.798;2022-08-14T09:38:27;99701.09;;;13.74;48.98
63399;BME280;49533;-34.520;150.798;2022-08-14T09:46:26;99720.09;;;13.70;49.45
63399;BME280;49533;-34.520;150.798;2022-08-14T09:49:01;99702.59;;;13.71;49.27
63399;BME280;49533;-34.520;150.798;2022-08-14T09:51:29;99737.28;;;13.70;49.35
63399;BME280;49533;-34.520;150.798;2022-08-14T09:54:08;99721.59;;;13.67;49.45
63399;BME280;49533;-34.520;150.798;2022-08-14T09:56:44;99731.25;;;13.65;49.13
63399;BME280;49533;-34.520;150.798;2022-08-14T09:59:14;99700.44;;;13.64;49.42
63399;BME280;49533;-34.520;150.798;2022-08-14T10:01:43;99707.50;;;13.65;49.36
63399;BME280;49533;-34.520;150.798;2022-08-14T10:04:23;99708.63;;;13.64;49.67
63399;BME280;49533;-34.520;150.798;2022-08-14T10:06:51;99714.88;;;13.65;49.58
63399;BME280;49533;-34.520;150.798;2022-08-14T10:09:18;99721.16;;;13.65;49.60
63399;BME280;49533;-34.520;150.798;2022-08-14T10:11:57;99705.56;;;13.66;49.72
63399;BME280;49533;-34.520;150.798;2022-08-14T10:14:28;99718.44;;;13.65;49.56
63399;BME280;49533;-34.520;150.798;2022-08-14T10:16:58;99709.41;;;13.65;49.67
63399;BME280;49533;-34.520;150.798;2022-08-14T10:19:28;99710.13;;;13.62;50.04
63399;BME280;49533;-34.520;150.798;2022-08-14T10:22:08;99722.66;;;13.63;49.93
63399;BME280;49533;-34.520;150.798;2022-08-14T10:24:43;99721.03;;;13.62;49.88
63399;BME280;49533;-34.520;150.798;2022-08-14T10:27:18;99719.78;;;13.59;49.93
63399;BME280;49533;-34.520;150.798;2022-08-14T10:29:58;99717.06;;;13.59;49.94
63399;BME280;49533;-34.520;150.798;2022-08-14T10:32:26;99718.56;;;13.57;50.18
63399;BME280;49533;-34.520;150.798;2022-08-14T10:35:07;99728.34;;;13.58;50.12
63399;BME280;49533;-34.520;150.798;2022-08-14T10:37:46;99735.72;;;13.57;50.13
63399;BME280;49533;-34.520;150.798;2022-08-14T10:40:24;99725.41;;;13.51;50.21
63399;BME280;49533;-34.520;150.798;2022-08-14T10:42:52;99739.06;;;13.51;50.14
63399;BME280;49533;-34.520;150.798;2022-08-14T10:45:32;99743.72;;;13.50;50.41
63399;BME280;49533;-34.520;150.798;2022-08-14T10:48:00;99754.97;;;13.48;50.04
63399;BME280;49533;-34.520;150.798;2022-08-14T10:50:31;99743.28;;;13.48;50.25
63399;BME280;49533;-34.520;150.798;2022-08-14T10:52:59;99760.75;;;13.47;50.25
63399;BME280;49533;-34.520;150.798;2022-08-14T10:55:36;99760.75;;;13.47;50.48
63399;BME280;49533;-34.520;150.798;2022-08-14T10:58:08;99747.94;;;13.47;50.42
63399;BME280;49533;-34.520;150.798;2022-08-14T11:00:40;99738.16;;;13.46;50.41
63399;BME280;49533;-34.520;150.798;2022-08-14T11:03:09;99747.47;;;13.45;50.43
63399;BME280;49533;-34.520;150.798;2022-08-14T11:05:39;99737.69;;;13.44;50.20
63399;BME280;49533;-34.520;150.798;2022-08-14T11:08:07;99748.97;;;13.43;50.67
63399;BME280;49533;-34.520;150.798;2022-08-14T11:10:57;99731.34;;;13.40;50.11
63399;BME280;49533;-34.520;150.798;2022-08-14T11:13:29;99732.84;;;13.38;50.44
63399;BME280;49533;-34.520;150.798;2022-08-14T11:15:59;99739.09;;;13.38;50.34
63399;BME280;49533;-34.520;150.798;2022-08-14T11:18:28;99733.63;;;13.38;50.58
63399;BME280;49533;-34.520;150.798;2022-08-14T11:20:58;99735.44;;;13.34;50.39
63399;BME280;49533;-34.520;150.798;2022-08-14T11:23:32;99727.25;;;13.34;50.43
63399;BME280;49533;-34.520;150.798;2022-08-14T11:26:00;99724.88;;;13.33;50.40
63399;BME280;49533;-34.520;150.798;2022-08-14T11:28:36;99740.47;;;13.32;50.28
63399;BME280;49533;-34.520;150.798;2022-08-14T11:31:05;99749.00;;;13.31;50.47
63399;BME280;49533;-34.520;150.798;2022-08-14T11:33:34;99739.66;;;13.32;50.54
63399;BME280;49533;-34.520;150.798;2022-08-14T11:36:05;99734.56;;;13.30;50.31
63399;BME280;49533;-34.520;150.798;2022-08-14T11:38:40;99713.84;;;13.29;50.49
63399;BME280;49533;-34.520;150.798;2022-08-14T11:41:08;99713.84;;;13.29;50.70
63399;BME280;49533;-34.520;150.798;2022-08-14T11:43:40;99721.63;;;13.27;50.34
63399;BME280;49533;-34.520;150.798;2022-08-14T11:46:08;99708.28;;;13.25;50.58
63399;BME280;49533;-34.520;150.798;2022-08-14T11:48:50;99712.94;;;13.25;50.55
63399;BME280;49533;-34.520;150.798;2022-08-14T11:51:20;99724.53;;;13.22;50.55
63399;BME280;49533;-34.520;150.798;2022-08-14T11:53:55;99711.25;;;13.20;50.47
63399;BME280;49533;-34.520;150.798;2022-08-14T11:56:23;99720.56;;;13.19;50.66
63399;BME280;49533;-34.520;150.798;2022-08-14T11:58:52;99722.16;;;13.20;50.70
63399;BME280;49533;-34.520;150.798;2022-08-14T12:01:28;99713.63;;;13.22;50.62
63399;BME280;49533;-34.520;150.798;2022-08-14T12:04:13;99717.47;;;13.21;50.62
63399;BME280;49533;-34.520;150.798;2022-08-14T12:06:52;99705.00;;;13.20;50.57
63399;BME280;49533;-34.520;150.798;2022-08-14T12:09:31;99708.84;;;13.19;50.79
63399;BME280;49533;-34.520;150.798;2022-08-14T12:12:00;99699.41;;;13.16;50.51
63399;BME280;49533;-34.520;150.798;2022-08-14T12:14:28;99704.09;;;13.16;50.82
63399;BME280;49533;-34.520;150.798;2022-08-14T12:17:08;99702.50;;;13.15;50.78
63399;BME280;49533;-34.520;150.798;2022-08-14T12:22:11;99703.63;;;13.14;51.00
63399;BME280;49533;-34.520;150.798;2022-08-14T12:24:38;99715.69;;;13.13;51.18
63399;BME280;49533;-34.520;150.798;2022-08-14T12:27:08;99719.91;;;13.10;51.12
63399;BME280;49533;-34.520;150.798;2022-08-14T12:29:36;99721.84;;;13.10;50.81
63399;BME280;49533;-34.520;150.798;2022-08-14T12:32:07;99717.97;;;13.11;50.79
63399;BME280;49533;-34.520;150.798;2022-08-14T12:34:34;99720.22;;;13.09;50.97
63399;BME280;49533;-34.520;150.798;2022-08-14T12:37:04;99723.31;;;13.07;51.13
63399;BME280;49533;-34.520;150.798;2022-08-14T12:39:31;99731.13;;;13.09;51.01
63399;BME280;49533;-34.520;150.798;2022-08-14T12:41:59;99718.66;;;13.08;50.97
63399;BME280;49533;-34.520;150.798;2022-08-14T12:44:36;99718.66;;;13.08;51.31
63399;BME280;49533;-34.520;150.798;2022-08-14T12:47:07;99711.63;;;13.07;51.14
63399;BME280;49533;-34.520;150.798;2022-08-14T12:49:46;99721.38;;;13.08;51.32
63399;BME280;49533;-34.520;150.798;2022-08-14T12:52:14;99706.50;;;13.05;51.39
63399;BME280;49533;-34.520;150.798;2022-08-14T12:54:41;99706.50;;;13.05;51.35
63399;BME280;49533;-34.520;150.798;2022-08-14T12:57:12;99699.09;;;13.05;51.13
63399;BME280;49533;-34.520;150.798;2022-08-14T12:59:39;99716.63;;;13.04;51.24
63399;BME280;49533;-34.520;150.798;2022-08-14T13:02:06;99722.41;;;13.03;51.20